Time;durP1;ratioP1;P1;durP2;ratioP2;P2;SDS_P1;SDS_P2;PMS_P1;PMS_P2;Temp;Humidity;BMP_temperature;BMP_pressure;BME280_temperature;BME280_humidity;BME280_pressure;Samples;Min_cycle;Max_cycle;Signal;HPM_P1;HPM_P2
2021/11/06 00:00:40;;;;;;;0.50;0.50;;;;;;;9.59;66.30;100979.89;111691;1193;139293;-76
2021/11/06 00:03:14;;;;;;;0.40;0.40;;;;;;;9.65;65.91;100983.70;111545;1195;95401;-77
2021/11/06 00:05:42;;;;;;;0.50;0.50;;;;;;;9.54;66.21;100983.51;111469;1193;138457;-76
2021/11/06 00:08:09;;;;;;;0.50;0.50;;;;;;;9.48;66.49;100986.04;111601;1193;107500;-75
2021/11/06 00:10:37;;;;;;;0.50;0.40;;;;;;;9.47;66.58;100980.74;111453;1193;138621;-75
2021/11/06 00:13:05;;;;;;;0.50;0.40;;;;;;;9.45;66.42;100981.83;111641;1193;95450;-77
2021/11/06 00:15:34;;;;;;;0.50;0.40;;;;;;;9.36;66.80;100985.12;111768;1193;94869;-78
2021/11/06 00:18:03;;;;;;;0.50;0.50;;;;;;;9.35;67.06;100982.66;111507;1200;137725;-77
2021/11/06 00:20:31;;;;;;;0.40;0.40;;;;;;;9.43;67.16;100982.02;111794;1193;110096;-75
2021/11/06 00:22:59;;;;;;;0.50;0.40;;;;;;;9.48;66.78;100979.14;111678;1193;138224;-75
2021/11/06 00:25:27;;;;;;;0.50;0.50;;;;;;;9.44;67.01;100981.13;111698;1193;95715;-76
2021/11/06 00:27:55;;;;;;;0.50;0.40;;;;;;;9.49;66.88;100981.25;111690;1193;108532;-77
2021/11/06 00:30:23;;;;;;;0.50;0.50;;;;;;;9.56;67.00;100978.67;111564;1196;139954;-77
2021/11/06 00:32:50;;;;;;;0.50;0.40;;;;;;;9.57;66.70;100979.56;111615;1195;95780;-77
2021/11/06 00:35:18;;;;;;;0.50;0.40;;;;;;;9.55;66.61;100978.16;111504;1193;138496;-76
2021/11/06 00:37:46;;;;;;;0.40;0.40;;;;;;;9.44;66.82;100980.95;111515;1193;106433;-76
2021/11/06 00:40:15;;;;;;;0.50;0.40;;;;;;;9.52;66.88;100982.45;111607;1193;109627;-76
2021/11/06 00:42:44;;;;;;;0.40;0.40;;;;;;;9.57;66.80;100984.51;111640;1193;138189;-76
2021/11/06 00:45:12;;;;;;;0.50;0.40;;;;;;;9.56;66.83;100990.38;111675;1193;96374;-77
2021/11/06 00:47:41;;;;;;;0.50;0.50;;;;;;;9.56;67.05;100995.88;111625;1193;137488;-75
2021/11/06 00:50:12;;;;;;;0.50;0.50;;;;;;;9.48;66.82;100996.15;111635;1193;108259;-76
2021/11/06 00:52:40;;;;;;;0.50;0.40;;;;;;;9.43;66.89;100999.23;111681;1193;139779;-77
2021/11/06 00:55:08;;;;;;;0.40;0.40;;;;;;;9.45;66.93;101004.52;111750;1193;95375;-76
2021/11/06 00:57:36;;;;;;;0.50;0.40;;;;;;;9.39;67.19;101006.71;111634;1193;107596;-78
2021/11/06 01:00:06;;;;;;;0.40;0.40;;;;;;;9.46;67.47;101008.59;111354;1193;138347;-77
2021/11/06 01:02:34;;;;;;;0.50;0.40;;;;;;;9.53;67.18;101008.85;111608;1193;94872;-77
2021/11/06 01:05:04;;;;;;;0.50;0.40;;;;;;;9.58;67.02;101004.89;111551;1193;137731;-77
2021/11/06 01:07:32;;;;;;;0.50;0.50;;;;;;;9.58;66.99;101001.16;111568;1193;108533;-76
2021/11/06 01:09:59;;;;;;;0.40;0.40;;;;;;;9.53;67.10;100999.64;111570;1193;108530;-77
2021/11/06 01:12:27;;;;;;;0.50;0.40;;;;;;;9.51;67.00;101002.48;111434;1193;138893;-76
2021/11/06 01:14:55;;;;;;;0.40;0.40;;;;;;;9.53;66.89;101004.08;111484;1193;94892;-76
2021/11/06 01:17:23;;;;;;;0.50;0.40;;;;;;;9.53;67.08;101003.89;111457;1193;137751;-76
2021/11/06 01:19:56;;;;;;;0.60;0.60;;;;;;;9.52;67.39;101007.63;111454;1193;109605;-76
2021/11/06 01:22:24;;;;;;;0.50;0.40;;;;;;;9.51;67.22;101007.10;111461;1193;140049;-76
2021/11/06 01:24:51;;;;;;;0.50;0.40;;;;;;;9.56;67.21;101008.27;111594;1193;94906;-76
2021/11/06 01:27:19;;;;;;;0.50;0.40;;;;;;;9.58;67.13;101015.17;111577;1193;107331;-76
2021/11/06 01:29:48;;;;;;;0.50;0.50;;;;;;;9.56;67.10;101017.67;111475;1193;138568;-76
2021/11/06 01:32:17;;;;;;;0.50;0.40;;;;;;;9.53;67.13;101024.45;111658;1193;95467;-76
2021/11/06 01:34:45;;;;;;;0.50;0.50;;;;;;;9.49;67.28;101025.02;111548;1193;138561;-77
2021/11/06 01:37:13;;;;;;;0.40;0.30;;;;;;;9.50;67.45;101024.31;111518;1193;107622;-76
2021/11/06 01:39:41;;;;;;;0.40;0.40;;;;;;;9.55;67.53;101021.23;111489;1193;108553;-77
2021/11/06 01:42:09;;;;;;;0.50;0.40;;;;;;;9.63;67.17;101018.66;111519;1193;138532;-76
2021/11/06 01:44:53;;;;;;;0.50;0.40;;;;;;;9.63;67.10;101021.69;111500;1194;95443;-76
2021/11/06 01:47:20;;;;;;;0.40;0.30;;;;;;;9.60;67.01;101021.35;111496;1193;137655;-77
2021/11/06 01:49:48;;;;;;;0.50;0.40;;;;;;;9.53;67.26;101021.44;111739;1193;109045;-77
2021/11/06 01:52:16;;;;;;;0.40;0.40;;;;;;;9.52;67.48;101023.23;111551;1193;95734;-77
2021/11/06 01:54:44;;;;;;;0.40;0.40;;;;;;;9.60;67.50;101022.06;111609;1193;137965;-76
2021/11/06 01:57:12;;;;;;;0.40;0.30;;;;;;;9.68;67.42;101023.55;111569;1193;107706;-77
2021/11/06 01:59:39;;;;;;;0.40;0.30;;;;;;;9.74;67.20;101023.31;111435;1193;138099;-76
2021/11/06 02:02:07;;;;;;;0.40;0.40;;;;;;;9.71;66.97;101023.33;111530;1193;95687;-76
2021/11/06 02:04:35;;;;;;;0.40;0.40;;;;;;;9.73;67.10;101031.48;111495;1193;138193;-75
2021/11/06 02:07:03;;;;;;;0.40;0.40;;;;;;;9.75;67.02;101037.11;111573;1193;107599;-76
2021/11/06 02:09:31;;;;;;;0.40;0.30;;;;;;;9.72;67.16;101029.53;111414;1193;108505;-76
2021/11/06 02:12:00;;;;;;;0.50;0.40;;;;;;;9.71;67.24;101037.18;111511;1193;139501;-75
2021/11/06 02:14:27;;;;;;;0.40;0.40;;;;;;;9.74;67.24;101041.05;111605;1193;95855;-76
2021/11/06 02:16:55;;;;;;;0.40;0.40;;;;;;;9.76;67.27;101043.51;111480;1196;139457;-76
2021/11/06 02:19:28;;;;;;;0.50;0.40;;;;;;;9.77;67.29;101038.52;111708;1193;110830;-77
2021/11/06 02:21:58;;;;;;;0.40;0.40;;;;;;;9.73;67.35;101038.03;111782;1193;95540;-77
2021/11/06 02:24:27;;;;;;;0.40;0.40;;;;;;;9.70;67.45;101032.92;111999;1192;138866;-77
2021/11/06 02:26:56;;;;;;;0.40;0.30;;;;;;;9.72;67.37;101030.96;111770;1193;108104;-77
2021/11/06 02:29:23;;;;;;;0.40;0.30;;;;;;;9.65;67.67;101030.70;111650;1192;138124;-76
2021/11/06 02:31:56;;;;;;;0.40;0.30;;;;;;;9.65;67.64;101031.59;111670;1193;96055;-77
2021/11/06 02:34:24;;;;;;;0.40;0.40;;;;;;;9.67;67.68;101031.55;111595;1193;138393;-77
2021/11/06 02:36:53;;;;;;;0.40;0.30;;;;;;;9.70;67.57;101029.56;111709;1193;108792;-77
2021/11/06 02:39:24;;;;;;;0.40;0.40;;;;;;;9.71;67.70;101029.90;112005;1192;109504;-76
2021/11/06 02:42:06;;;;;;;0.40;0.40;;;;;;;9.71;67.60;101028.85;111383;1193;138733;-75
2021/11/06 02:44:35;;;;;;;0.50;0.40;;;;;;;9.70;67.66;101033.81;111358;1197;95467;-76
2021/11/06 02:47:04;;;;;;;0.40;0.40;;;;;;;9.74;67.77;101034.13;111405;1193;138850;-76
2021/11/06 02:49:32;;;;;;;0.40;0.40;;;;;;;9.83;67.64;101035.25;111510;1193;108977;-75
2021/11/06 02:52:00;;;;;;;0.40;0.40;;;;;;;9.83;67.38;101038.09;111492;1194;94996;-76
2021/11/06 02:54:29;;;;;;;0.50;0.40;;;;;;;9.76;67.62;101043.49;111554;1194;137689;-76
2021/11/06 02:56:57;;;;;;;0.40;0.40;;;;;;;9.79;67.79;101043.09;111570;1193;108806;-77
2021/11/06 02:59:24;;;;;;;0.40;0.30;;;;;;;9.82;67.65;101040.42;111684;1193;138517;-75
2021/11/06 03:01:53;;;;;;;0.40;0.30;;;;;;;9.77;67.76;101039.42;111951;1192;94929;-76
2021/11/06 03:04:22;;;;;;;0.40;0.40;;;;;;;9.74;67.96;101038.73;111727;1193;95794;-76
2021/11/06 03:06:49;;;;;;;0.40;0.40;;;;;;;9.79;67.91;101039.23;111877;1193;138581;-77
2021/11/06 03:09:18;;;;;;;0.40;0.30;;;;;;;9.89;67.78;101038.19;111600;1193;108074;-76
2021/11/06 03:11:46;;;;;;;0.40;0.40;;;;;;;9.90;67.56;101042.96;111652;1193;138045;-77
2021/11/06 03:14:13;;;;;;;0.40;0.40;;;;;;;9.81;67.58;101045.39;111596;1193;95081;-76
2021/11/06 03:16:42;;;;;;;0.40;0.30;;;;;;;9.82;67.84;101047.33;111428;1192;140571;-77
2021/11/06 03:19:10;;;;;;;0.40;0.30;;;;;;;9.91;67.59;101046.69;111489;1193;108558;-76
2021/11/06 03:21:38;;;;;;;0.40;0.30;;;;;;;9.90;67.46;101044.56;111651;1193;95240;-76
2021/11/06 03:24:07;;;;;;;0.50;0.40;;;;;;;9.92;67.50;101045.78;111626;1193;137392;-77
2021/11/06 03:26:35;;;;;;;0.40;0.30;;;;;;;9.86;67.27;101047.63;111624;1193;107518;-77
2021/11/06 03:29:03;;;;;;;0.40;0.30;;;;;;;9.81;67.33;101049.82;111503;1192;138710;-77
2021/11/06 03:31:33;;;;;;;0.40;0.30;;;;;;;9.85;67.43;101054.02;111563;1193;94966;-77
2021/11/06 03:34:01;;;;;;;0.40;0.40;;;;;;;9.84;67.30;101054.94;111607;1192;95944;-78
2021/11/06 03:36:28;;;;;;;0.40;0.30;;;;;;;9.84;67.34;101057.42;111435;1195;138999;-77
2021/11/06 03:38:56;;;;;;;0.40;0.30;;;;;;;9.84;67.20;101051.38;111614;1192;108522;-78
2021/11/06 03:41:25;;;;;;;0.40;0.30;;;;;;;9.81;67.27;101054.80;111672;1192;137825;-77
2021/11/06 03:43:56;;;;;;;0.50;0.50;;;;;;;9.78;67.29;101058.02;111557;1193;95864;-76
2021/11/06 03:46:24;;;;;;;0.40;0.40;;;;;;;9.76;67.14;101057.15;111540;1192;107621;-76
2021/11/06 03:48:53;;;;;;;0.40;0.40;;;;;;;9.77;67.38;101053.78;111537;1193;138228;-76
2021/11/06 03:51:21;;;;;;;0.40;0.40;;;;;;;9.77;67.23;101058.56;111719;1193;95394;-75
2021/11/06 03:53:48;;;;;;;0.50;0.40;;;;;;;9.74;67.03;101059.66;111639;1192;138504;-77
2021/11/06 03:56:17;;;;;;;0.40;0.40;;;;;;;9.73;67.06;101058.61;111647;1193;106269;-77
2021/11/06 03:58:45;;;;;;;0.50;0.40;;;;;;;9.82;67.20;101061.86;111585;1193;138077;-74
2021/11/06 04:01:13;;;;;;;0.50;0.40;;;;;;;9.82;66.71;101059.73;111755;1193;95868;-76
2021/11/06 04:03:41;;;;;;;0.50;0.40;;;;;;;9.80;66.61;101059.41;111703;1192;96250;-77
2021/11/06 04:06:09;;;;;;;0.40;0.40;;;;;;;9.77;66.89;101057.67;111462;1193;137930;-77
2021/11/06 04:08:37;;;;;;;0.50;0.40;;;;;;;9.81;66.74;101059.21;111589;1192;109805;-77
2021/11/06 04:11:05;;;;;;;0.40;0.40;;;;;;;9.80;66.65;101059.59;111527;1193;138348;-76
2021/11/06 04:13:33;;;;;;;0.40;0.40;;;;;;;9.73;66.62;101057.55;111761;1192;94917;-75
2021/11/06 04:16:01;;;;;;;0.50;0.40;;;;;;;9.72;66.84;101052.06;111620;1192;107435;-76
2021/11/06 04:18:28;;;;;;;0.50;0.40;;;;;;;9.72;66.74;101047.28;111666;1192;138748;-76
2021/11/06 04:20:56;;;;;;;0.40;0.30;;;;;;;9.68;66.59;101047.33;111650;1193;94982;-77
2021/11/06 04:23:24;;;;;;;0.50;0.50;;;;;;;9.60;66.55;101047.43;111503;1193;138212;-76
2021/11/06 04:25:56;;;;;;;0.50;0.50;;;;;;;9.62;66.69;101051.13;111668;1193;108445;-77
2021/11/06 04:28:24;;;;;;;0.40;0.40;;;;;;;9.61;66.30;101052.20;111663;1192;108501;-76
2021/11/06 04:30:52;;;;;;;0.40;0.30;;;;;;;9.67;66.37;101051.95;111530;1192;138445;-77
2021/11/06 04:33:20;;;;;;;0.40;0.40;;;;;;;9.73;66.24;101057.54;111568;1195;94955;-76
2021/11/06 04:35:48;;;;;;;0.50;0.50;;;;;;;9.67;66.02;101053.53;111674;1192;137367;-76
2021/11/06 04:38:15;;;;;;;0.50;0.40;;;;;;;9.65;66.30;101057.64;111704;1193;108796;-77
2021/11/06 04:40:43;;;;;;;0.40;0.40;;;;;;;9.70;65.98;101063.60;111414;1193;138634;-76
2021/11/06 04:43:11;;;;;;;0.40;0.40;;;;;;;9.73;66.05;101060.73;111652;1193;95414;-76
2021/11/06 04:45:38;;;;;;;0.50;0.40;;;;;;;9.71;66.00;101061.65;111659;1192;107471;-77
2021/11/06 04:48:06;;;;;;;0.50;0.40;;;;;;;9.73;65.98;101061.09;111565;1192;138541;-76
2021/11/06 04:50:34;;;;;;;0.40;0.40;;;;;;;9.70;65.61;101060.77;111737;1192;96129;-77
2021/11/06 04:53:02;;;;;;;0.40;0.30;;;;;;;9.68;65.93;101059.56;111511;1192;136864;-77
2021/11/06 04:55:30;;;;;;;0.40;0.40;;;;;;;9.68;65.80;101056.20;111718;1192;108300;-77
2021/11/06 04:57:57;;;;;;;0.50;0.40;;;;;;;9.61;65.72;101058.22;111728;1192;109466;-77
2021/11/06 05:00:25;;;;;;;0.40;0.30;;;;;;;9.60;65.91;101062.66;111681;1192;140347;-76
2021/11/06 05:02:53;;;;;;;0.50;0.40;;;;;;;9.62;65.83;101063.71;111464;1192;95087;-75
2021/11/06 05:05:23;;;;;;;0.40;0.40;;;;;;;9.58;65.74;101063.23;111429;1193;137616;-78
2021/11/06 05:07:55;;;;;;;0.50;0.40;;;;;;;9.53;65.76;101063.80;111801;1192;109560;-77
2021/11/06 05:10:23;;;;;;;0.40;0.40;;;;;;;9.54;65.75;101062.55;111648;1193;95874;-76
2021/11/06 05:12:51;;;;;;;0.40;0.40;;;;;;;9.54;65.70;101061.67;111474;1194;138105;-76
2021/11/06 05:15:19;;;;;;;0.40;0.40;;;;;;;9.48;65.52;101059.43;111601;1193;108501;-76
2021/11/06 05:17:47;;;;;;;0.40;0.40;;;;;;;9.43;65.73;101068.36;111495;1193;137435;-76
2021/11/06 05:20:14;;;;;;;0.40;0.40;;;;;;;9.43;65.80;101069.05;111531;1195;94798;-77
2021/11/06 05:22:42;;;;;;;0.40;0.40;;;;;;;9.46;65.76;101070.98;111478;1193;138499;-75
2021/11/06 05:25:10;;;;;;;0.40;0.30;;;;;;;9.50;65.68;101074.12;111657;1192;109475;-76
2021/11/06 05:27:38;;;;;;;0.40;0.40;;;;;;;9.51;65.60;101075.53;111484;1193;108970;-77
2021/11/06 05:30:08;;;;;;;0.40;0.40;;;;;;;9.56;65.47;101079.36;111651;1192;137858;-77
2021/11/06 05:32:37;;;;;;;0.40;0.40;;;;;;;9.60;65.42;101078.27;111509;1192;95279;-75
2021/11/06 05:35:06;;;;;;;0.40;0.40;;;;;;;9.61;65.10;101080.73;111196;1195;137667;-77
2021/11/06 05:37:34;;;;;;;0.40;0.40;;;;;;;9.55;65.08;101085.59;111478;1193;109560;-76
2021/11/06 05:40:04;;;;;;;0.40;0.40;;;;;;;9.44;65.17;101092.27;111524;1193;95436;-77
2021/11/06 05:42:33;;;;;;;0.50;0.40;;;;;;;9.43;65.38;101091.04;111769;1192;138676;-78
2021/11/06 05:45:01;;;;;;;0.40;0.40;;;;;;;9.45;65.39;101094.20;111528;1192;108964;-77
2021/11/06 05:47:29;;;;;;;0.50;0.40;;;;;;;9.46;65.53;101098.27;111539;1192;137744;-78
2021/11/06 05:49:57;;;;;;;0.40;0.40;;;;;;;9.48;65.38;101096.11;111653;1192;94958;-77
2021/11/06 05:52:34;;;;;;;0.40;0.40;;;;;;;9.51;65.32;101094.14;111544;1192;138783;-76
2021/11/06 05:55:06;;;;;;;0.40;0.40;;;;;;;9.52;65.26;101097.86;111677;1192;106672;-77
2021/11/06 05:57:35;;;;;;;0.40;0.40;;;;;;;9.47;65.37;101101.27;111632;1193;108006;-77
2021/11/06 06:00:14;;;;;;;0.40;0.30;;;;;;;9.47;65.61;101101.09;111171;1193;138407;-78
2021/11/06 06:02:42;;;;;;;0.40;0.40;;;;;;;9.63;65.47;101107.48;111661;1192;94899;-77
2021/11/06 06:05:10;;;;;;;0.40;0.30;;;;;;;9.70;65.20;101109.54;111443;1196;138475;-77
2021/11/06 06:07:39;;;;;;;0.50;0.50;;;;;;;9.74;65.17;101113.04;111632;1192;109442;-76
2021/11/06 06:10:09;;;;;;;0.50;0.40;;;;;;;9.77;65.00;101112.30;111494;1195;94948;-77
2021/11/06 06:12:38;;;;;;;0.40;0.30;;;;;;;9.74;65.00;101113.93;111630;1192;138846;-77
2021/11/06 06:15:06;;;;;;;0.40;0.40;;;;;;;9.74;65.13;101115.70;111495;1192;108097;-77
2021/11/06 06:17:34;;;;;;;0.40;0.30;;;;;;;9.72;65.02;101116.25;111442;1193;137203;-77
2021/11/06 06:20:02;;;;;;;0.40;0.30;;;;;;;9.70;65.30;101114.31;111679;1192;95860;-77
2021/11/06 06:22:30;;;;;;;0.40;0.30;;;;;;;9.70;65.40;101116.27;111411;1192;139016;-77
2021/11/06 06:24:58;;;;;;;0.40;0.30;;;;;;;9.68;65.38;101118.61;111599;1192;107418;-76
2021/11/06 06:27:25;;;;;;;0.40;0.30;;;;;;;9.70;65.46;101114.14;111725;1193;106728;-77
2021/11/06 06:29:53;;;;;;;0.40;0.30;;;;;;;9.68;65.59;101113.98;111498;1192;139286;-77
2021/11/06 06:32:21;;;;;;;0.40;0.40;;;;;;;9.63;65.70;101112.10;111471;1195;95112;-76
2021/11/06 06:34:49;;;;;;;0.40;0.30;;;;;;;9.63;65.73;101110.33;111536;1193;139668;-77
2021/11/06 06:37:16;;;;;;;0.40;0.30;;;;;;;9.64;65.83;101113.34;111558;1193;109479;-77
2021/11/06 06:39:44;;;;;;;0.40;0.40;;;;;;;9.70;65.86;101124.96;111680;1192;95849;-77
2021/11/06 06:42:12;;;;;;;0.40;0.30;;;;;;;9.76;65.84;101132.35;111621;1192;137357;-77
2021/11/06 06:44:40;;;;;;;0.40;0.40;;;;;;;9.82;65.70;101132.09;111698;1192;108307;-78
2021/11/06 06:47:10;;;;;;;0.40;0.30;;;;;;;9.90;65.55;101134.31;111716;1192;139005;-77
2021/11/06 06:49:38;;;;;;;0.40;0.30;;;;;;;9.97;65.46;101133.88;112112;1192;94868;-77
2021/11/06 06:52:06;;;;;;;0.40;0.30;;;;;;;9.99;65.49;101136.51;111677;1193;94894;-77
2021/11/06 06:54:34;;;;;;;0.40;0.30;;;;;;;10.05;65.46;101136.27;111731;1192;137659;-76
2021/11/06 06:57:02;;;;;;;0.40;0.30;;;;;;;10.08;65.01;101139.25;111945;1193;108632;-77
2021/11/06 06:59:32;;;;;;;0.40;0.30;;;;;;;10.05;65.17;101138.04;111784;1192;138611;-77
2021/11/06 07:02:06;;;;;;;0.40;0.30;;;;;;;10.03;65.19;101142.85;111771;1193;94894;-76
2021/11/06 07:04:34;;;;;;;0.40;0.40;;;;;;;10.01;65.28;101142.87;111776;1192;138816;-77
2021/11/06 07:07:01;;;;;;;0.40;0.30;;;;;;;10.09;65.10;101144.72;111931;1192;110560;-77
2021/11/06 07:09:29;;;;;;;0.40;0.30;;;;;;;10.21;65.20;101147.59;111883;1192;96371;-76
2021/11/06 07:11:57;;;;;;;0.40;0.30;;;;;;;10.32;64.76;101147.10;111750;1192;137539;-76
2021/11/06 07:14:25;;;;;;;0.40;0.30;;;;;;;10.28;64.58;101151.42;111737;1192;108382;-76
2021/11/06 07:16:53;;;;;;;0.40;0.30;;;;;;;10.30;64.61;101148.02;111521;1193;141174;-78
2021/11/06 07:19:21;;;;;;;0.40;0.30;;;;;;;10.33;64.37;101152.77;111800;1192;95391;-77
2021/11/06 07:21:49;;;;;;;0.40;0.30;;;;;;;10.34;64.26;101152.05;111699;1193;95372;-77
2021/11/06 07:24:16;;;;;;;0.40;0.30;;;;;;;10.41;64.26;101152.16;111415;1192;138171;-77
2021/11/06 07:26:46;;;;;;;0.40;0.30;;;;;;;10.46;64.00;101155.12;111766;1192;108442;-77
2021/11/06 07:29:14;;;;;;;0.40;0.30;;;;;;;10.41;63.86;101155.53;111581;1193;139270;-77
2021/11/06 07:31:42;;;;;;;0.40;0.30;;;;;;;10.42;64.27;101153.92;111792;1192;96117;-77
2021/11/06 07:34:10;;;;;;;0.40;0.30;;;;;;;10.45;64.02;101156.55;111695;1195;108164;-77
2021/11/06 07:36:38;;;;;;;0.40;0.30;;;;;;;10.39;64.05;101156.28;111789;1192;138257;-78
2021/11/06 07:39:06;;;;;;;0.40;0.30;;;;;;;10.41;64.01;101158.03;111737;1192;95935;-76
2021/11/06 07:41:34;;;;;;;0.40;0.30;;;;;;;10.52;64.01;101160.55;111496;1193;138393;-78
2021/11/06 07:44:03;;;;;;;0.40;0.30;;;;;;;10.56;63.44;101155.86;111754;1192;107583;-77
2021/11/06 07:46:30;;;;;;;0.40;0.30;;;;;;;10.56;63.29;101158.00;111481;1193;138557;-75
2021/11/06 07:48:58;;;;;;;0.40;0.30;;;;;;;10.51;63.31;101158.60;111545;1193;96337;-76
2021/11/06 07:51:27;;;;;;;0.40;0.30;;;;;;;10.52;63.31;101159.12;111657;1192;94967;-76
2021/11/06 07:53:57;;;;;;;0.40;0.30;;;;;;;10.50;62.84;101159.67;111383;1194;138258;-77
2021/11/06 07:56:25;;;;;;;0.40;0.30;;;;;;;10.50;63.35;101167.31;111642;1197;109740;-77
2021/11/06 07:58:52;;;;;;;0.40;0.30;;;;;;;10.55;63.20;101174.18;111967;1194;138232;-78
2021/11/06 08:01:20;;;;;;;0.40;0.30;;;;;;;10.54;62.86;101166.55;111677;1192;94933;-76
2021/11/06 08:03:48;;;;;;;0.40;0.30;;;;;;;10.53;63.15;101169.75;111762;1192;107382;-77
2021/11/06 08:06:18;;;;;;;0.40;0.30;;;;;;;10.62;63.06;101175.13;111703;1192;137820;-76
2021/11/06 08:08:45;;;;;;;0.40;0.40;;;;;;;10.64;62.94;101170.14;111700;1192;94927;-77
2021/11/06 08:11:13;;;;;;;0.40;0.30;;;;;;;10.69;62.75;101177.71;111541;1192;138347;-78
2021/11/06 08:13:41;;;;;;;0.40;0.30;;;;;;;10.77;62.54;101175.28;111505;1193;108685;-77
2021/11/06 08:16:09;;;;;;;0.40;0.30;;;;;;;10.86;62.05;101175.33;111706;1193;107515;-77
2021/11/06 08:18:37;;;;;;;0.40;0.30;;;;;;;10.90;61.90;101177.76;111603;1192;138173;-77
2021/11/06 08:21:05;;;;;;;0.40;0.30;;;;;;;10.86;62.20;101172.46;111814;1192;95438;-77
2021/11/06 08:23:32;;;;;;;0.40;0.30;;;;;;;10.90;62.29;101177.04;111334;1193;138513;-78
2021/11/06 08:26:00;;;;;;;0.40;0.30;;;;;;;10.95;61.84;101181.25;111769;1192;109692;-78
2021/11/06 08:28:28;;;;;;;0.40;0.30;;;;;;;10.94;62.18;101176.98;111631;1192;95406;-79
2021/11/06 08:30:56;;;;;;;0.40;0.30;;;;;;;10.96;62.13;101184.05;111419;1193;138105;-76
2021/11/06 08:33:24;;;;;;;0.40;0.30;;;;;;;10.91;62.11;101183.42;111664;1192;107472;-75
2021/11/06 08:35:52;;;;;;;0.40;0.30;;;;;;;10.85;62.18;101192.74;111550;1192;138873;-77
2021/11/06 08:38:19;;;;;;;0.40;0.30;;;;;;;10.75;62.48;101197.70;111614;1193;94968;-77
2021/11/06 08:40:47;;;;;;;0.40;0.30;;;;;;;10.68;62.80;101201.16;111712;1192;138205;-77
2021/11/06 08:43:17;;;;;;;0.40;0.30;;;;;;;10.64;63.05;101205.84;111717;1194;107310;-76
2021/11/06 08:45:46;;;;;;;0.40;0.30;;;;;;;10.63;63.19;101206.20;111700;1193;109421;-75
2021/11/06 08:48:14;;;;;;;0.40;0.30;;;;;;;10.66;63.23;101209.89;111697;1192;137973;-77
2021/11/06 08:50:42;;;;;;;0.40;0.30;;;;;;;10.74;63.72;101209.60;111797;1193;94981;-77
2021/11/06 08:53:10;;;;;;;0.40;0.30;;;;;;;10.78;63.16;101210.26;111680;1193;138241;-78
2021/11/06 08:55:37;;;;;;;0.40;0.30;;;;;;;10.70;63.51;101210.90;111690;1193;108988;-77
2021/11/06 08:58:05;;;;;;;0.40;0.30;;;;;;;10.72;63.52;101213.19;111622;1192;95651;-78
2021/11/06 09:00:42;;;;;;;0.40;0.30;;;;;;;10.80;63.58;101213.95;111494;1192;138126;-77
2021/11/06 09:03:18;;;;;;;0.40;0.30;;;;;;;10.82;63.36;101215.18;111577;1193;108485;-78
2021/11/06 09:05:51;;;;;;;0.40;0.30;;;;;;;10.79;63.67;101214.67;111604;1192;138412;-77
2021/11/06 09:08:32;;;;;;;0.40;0.30;;;;;;;10.86;63.54;101213.33;111812;1192;95120;-75
2021/11/06 09:11:06;;;;;;;0.40;0.30;;;;;;;10.94;63.33;101215.55;111711;1194;139297;-76
2021/11/06 09:13:34;;;;;;;0.40;0.30;;;;;;;10.90;63.26;101212.22;111829;1193;108684;-77
2021/11/06 09:16:09;;;;;;;0.40;0.30;;;;;;;10.87;63.54;101213.68;111819;1192;108033;-78
2021/11/06 09:18:37;;;;;;;0.40;0.30;;;;;;;10.85;63.42;101211.22;111806;1192;140549;-77
2021/11/06 09:21:08;;;;;;;0.40;0.30;;;;;;;10.86;63.45;101213.17;111768;1193;95951;-77
2021/11/06 09:23:37;;;;;;;0.40;0.30;;;;;;;10.85;63.46;101213.02;111540;1193;139231;-76
2021/11/06 09:26:05;;;;;;;0.40;0.30;;;;;;;10.91;63.58;101218.26;112008;1192;109145;-77
2021/11/06 09:28:40;;;;;;;0.40;0.30;;;;;;;10.96;63.56;101223.34;111881;1193;138913;-78
2021/11/06 09:31:12;;;;;;;0.40;0.30;;;;;;;11.02;63.31;101222.35;111760;1193;96302;-77
2021/11/06 09:33:41;;;;;;;0.40;0.30;;;;;;;11.03;63.34;101225.71;111678;1195;106852;-76
2021/11/06 09:36:10;;;;;;;0.40;0.30;;;;;;;10.94;63.35;101227.80;111737;1192;138023;-77
2021/11/06 09:38:38;;;;;;;0.40;0.30;;;;;;;10.84;63.58;101219.41;111843;1193;95762;-77
2021/11/06 09:41:08;;;;;;;0.40;0.30;;;;;;;10.82;63.57;101224.06;111686;1193;138558;-78
2021/11/06 09:43:38;;;;;;;0.40;0.30;;;;;;;10.84;63.72;101221.89;111738;1193;107439;-77
2021/11/06 09:46:09;;;;;;;0.40;0.30;;;;;;;10.92;63.75;101222.14;111711;1193;108443;-78
2021/11/06 09:48:39;;;;;;;0.40;0.30;;;;;;;10.98;63.59;101219.21;111452;1193;138839;-79
2021/11/06 09:51:07;;;;;;;0.40;0.30;;;;;;;10.88;63.45;101212.23;111630;1193;95438;-76
2021/11/06 09:53:40;;;;;;;0.40;0.30;;;;;;;10.90;63.60;101213.65;111603;1194;139148;-80
2021/11/06 09:56:10;;;;;;;0.40;0.40;;;;;;;10.94;63.38;101214.48;111829;1192;107247;-77
2021/11/06 09:58:40;;;;;;;0.40;0.40;;;;;;;10.87;63.30;101214.23;111563;1196;138328;-78
2021/11/06 10:01:08;;;;;;;0.40;0.30;;;;;;;10.82;63.70;101207.89;111722;1193;95222;-76
2021/11/06 10:03:37;;;;;;;0.40;0.40;;;;;;;10.86;63.81;101209.26;111826;1192;107372;-76
2021/11/06 10:06:21;;;;;;;0.40;0.30;;;;;;;10.91;63.69;101209.02;111555;1195;139582;-77
2021/11/06 10:08:51;;;;;;;0.40;0.30;;;;;;;10.87;63.49;101207.28;111698;1192;94937;-75
2021/11/06 10:11:22;;;;;;;0.40;0.30;;;;;;;10.81;63.85;101207.91;111533;1195;139051;-79
2021/11/06 10:14:17;;;;;;;0.40;0.30;;;;;;;10.81;63.69;101208.62;112170;1192;108563;-77
2021/11/06 10:16:55;;;;;;;0.40;0.30;;;;;;;10.83;63.71;101214.45;111388;1193;138437;-76
2021/11/06 10:19:29;;;;;;;0.40;0.30;;;;;;;10.81;63.65;101205.05;111737;1192;94994;-77
2021/11/06 10:22:11;;;;;;;0.40;0.30;;;;;;;10.74;63.78;101208.89;111516;1193;95412;-75
2021/11/06 10:24:49;;;;;;;0.40;0.30;;;;;;;10.71;63.89;101210.71;111605;1192;138442;-76
2021/11/06 10:27:29;;;;;;;0.40;0.30;;;;;;;10.75;63.91;101205.86;111683;1193;109771;-76
2021/11/06 10:30:16;;;;;;;0.40;0.30;;;;;;;10.74;63.97;101206.59;111515;1195;138024;-76
2021/11/06 10:32:55;;;;;;;0.40;0.30;;;;;;;10.68;64.07;101203.30;111838;1192;96108;-76
2021/11/06 10:35:24;;;;;;;0.40;0.30;;;;;;;10.75;64.20;101207.99;111625;1193;138033;-76
2021/11/06 10:38:09;;;;;;;0.40;0.30;;;;;;;10.78;64.02;101206.52;112042;1192;108997;-78
2021/11/06 10:40:43;;;;;;;0.40;0.30;;;;;;;10.72;64.07;101207.15;111966;1192;136992;-76
2021/11/06 10:43:13;;;;;;;0.40;0.30;;;;;;;10.73;64.28;101206.42;111849;1192;96072;-77
2021/11/06 10:45:52;;;;;;;0.40;0.30;;;;;;;10.85;64.19;101211.59;111885;1192;108620;-77
2021/11/06 10:48:25;;;;;;;0.40;0.30;;;;;;;10.90;63.94;101207.07;111575;1193;138743;-77
2021/11/06 10:51:07;;;;;;;0.40;0.30;;;;;;;10.89;63.84;101207.96;111908;1192;95829;-78
2021/11/06 10:53:59;;;;;;;0.40;0.30;;;;;;;10.90;64.15;101210.79;111602;1193;136594;-77
2021/11/06 10:56:29;;;;;;;0.40;0.30;;;;;;;10.98;63.80;101210.33;111631;1193;108727;-77
2021/11/06 10:59:03;;;;;;;0.40;0.30;;;;;;;11.00;63.71;101199.83;111803;1192;139801;-75
2021/11/06 11:01:42;;;;;;;0.40;0.30;;;;;;;10.96;63.73;101207.69;111784;1193;95434;-76
2021/11/06 11:04:13;;;;;;;0.40;0.30;;;;;;;10.94;63.84;101203.27;112033;1192;95842;-77
2021/11/06 11:06:55;;;;;;;0.40;0.30;;;;;;;10.91;63.77;101202.43;111514;1193;138672;-76
2021/11/06 11:09:29;;;;;;;0.40;0.30;;;;;;;10.91;63.86;101198.52;111709;1193;107929;-76
2021/11/06 11:12:00;;;;;;;0.40;0.40;;;;;;;10.88;63.96;101197.50;111431;1193;138013;-78
2021/11/06 11:14:30;;;;;;;0.40;0.30;;;;;;;10.83;64.22;101197.38;111680;1193;95171;-78
2021/11/06 11:17:04;;;;;;;0.40;0.30;;;;;;;10.79;64.28;101191.42;111677;1193;138167;-76
2021/11/06 11:19:41;;;;;;;0.40;0.30;;;;;;;10.80;64.40;101191.21;112095;1193;108544;-75
2021/11/06 11:22:24;;;;;;;0.40;0.30;;;;;;;10.80;64.42;101189.98;112626;1192;94981;-76
2021/11/06 11:24:54;;;;;;;0.40;0.30;;;;;;;10.86;64.52;101187.04;112075;1192;139146;-76
2021/11/06 11:27:42;;;;;;;0.40;0.30;;;;;;;10.89;64.40;101180.44;111473;1195;108192;-76